createdAt,value
2019-05-21T00:02:18.717Z,15.90
2019-05-21T00:04:49.716Z,15.80
2019-05-21T00:07:20.431Z,15.80
2019-05-21T00:09:52.356Z,15.80
2019-05-21T00:12:23.247Z,15.70
2019-05-21T00:14:54.184Z,15.60
2019-05-21T00:17:25.120Z,15.60
2019-05-21T00:19:55.958Z,15.60
2019-05-21T00:22:28.310Z,15.50
2019-05-21T00:25:00.294Z,15.50
2019-05-21T00:27:31.227Z,15.50
2019-05-21T00:30:38.385Z,15.40
2019-05-21T00:33:46.393Z,15.40
2019-05-21T00:36:55.471Z,15.40
2019-05-21T00:40:02.750Z,15.30
2019-05-21T00:42:37.032Z,15.30
2019-05-21T00:45:10.356Z,15.30
2019-05-21T00:47:41.293Z,15.20
2019-05-21T00:50:12.410Z,15.20
2019-05-21T00:52:43.281Z,15.10
2019-05-21T00:55:14.255Z,15.10
2019-05-21T00:57:46.232Z,15.10
2019-05-21T01:00:17.311Z,15.10
2019-05-21T01:02:48.842Z,15.00
2019-05-21T01:05:20.695Z,15.00
2019-05-21T01:07:51.660Z,15.00
2019-05-21T01:10:22.392Z,15.00
2019-05-21T01:12:53.331Z,14.90
2019-05-21T01:15:24.166Z,14.90
2019-05-21T01:17:55.484Z,14.90
2019-05-21T01:20:26.455Z,14.80
2019-05-21T01:22:57.332Z,14.80
2019-05-21T01:25:30.127Z,14.80
2019-05-21T01:28:01.020Z,14.70
2019-05-21T01:30:31.947Z,14.70
2019-05-21T01:33:02.885Z,14.70
2019-05-21T01:35:35.168Z,14.70
2019-05-21T01:38:06.042Z,14.60
2019-05-21T01:40:36.928Z,14.70
2019-05-21T01:43:07.663Z,14.60
2019-05-21T01:45:38.673Z,14.60
2019-05-21T01:48:09.536Z,14.60
2019-05-21T01:50:40.475Z,14.50
2019-05-21T01:53:11.416Z,14.50
2019-05-21T01:55:43.578Z,14.50
2019-05-21T01:58:14.459Z,14.40
2019-05-21T02:00:45.350Z,14.40
2019-05-21T02:03:16.291Z,14.40
2019-05-21T02:05:48.872Z,14.40
2019-05-21T02:08:19.689Z,14.30
2019-05-21T02:10:51.661Z,14.30
2019-05-21T02:13:22.599Z,14.20
2019-05-21T02:15:54.615Z,14.10
2019-05-21T02:18:25.498Z,14.00
2019-05-21T02:20:56.440Z,14.00
2019-05-21T02:23:27.272Z,13.90
2019-05-21T02:26:00.445Z,13.90
2019-05-21T02:28:31.403Z,13.80
2019-05-21T02:31:02.342Z,13.70
2019-05-21T02:33:33.389Z,13.60
2019-05-21T02:36:04.346Z,13.70
2019-05-21T02:38:35.137Z,13.80
2019-05-21T02:41:07.830Z,13.80
2019-05-21T02:43:38.772Z,14.00
2019-05-21T02:46:10.832Z,14.10
2019-05-21T02:48:41.673Z,14.30
2019-05-21T02:51:12.989Z,14.40
2019-05-21T02:53:43.749Z,14.50
2019-05-21T02:56:14.611Z,14.60
2019-05-21T02:58:46.443Z,14.70
2019-05-21T03:01:19.024Z,14.70
2019-05-21T03:03:50.342Z,14.80
2019-05-21T03:06:21.309Z,14.90
2019-05-21T03:08:52.348Z,14.90
2019-05-21T03:11:24.429Z,14.90
2019-05-21T03:13:55.314Z,15.00
2019-05-21T03:16:26.192Z,15.00
2019-05-21T03:18:57.123Z,15.10
2019-05-21T03:21:29.877Z,15.10
2019-05-21T03:24:00.741Z,15.10
2019-05-21T03:26:31.625Z,15.10
2019-05-21T03:29:02.485Z,15.20
2019-05-21T03:31:33.377Z,15.20
2019-05-21T03:34:04.165Z,15.20
2019-05-21T03:36:35.016Z,15.30
2019-05-21T03:39:06.407Z,15.30
2019-05-21T03:41:38.593Z,15.30
2019-05-21T03:44:09.470Z,15.40
2019-05-21T03:46:40.750Z,15.50
2019-05-21T03:49:11.634Z,15.50
2019-05-21T03:51:43.923Z,15.60
2019-05-21T03:54:14.864Z,15.60
2019-05-21T03:56:45.697Z,15.60
2019-05-21T03:59:16.448Z,15.70
2019-05-21T04:01:48.390Z,15.80
2019-05-21T04:04:19.227Z,15.90
2019-05-21T04:06:52.346Z,15.90
2019-05-21T04:09:22.469Z,15.90
2019-05-21T04:11:53.668Z,16.00
2019-05-21T04:14:32.318Z,16.10
2019-05-21T04:17:11.734Z,16.10
2019-05-21T04:19:44.275Z,16.20
2019-05-21T04:22:18.334Z,16.20
2019-05-21T04:24:49.039Z,16.30
2019-05-21T04:27:20.094Z,16.30
2019-05-21T04:29:50.930Z,16.40
2019-05-21T04:32:31.915Z,16.50
2019-05-21T04:35:02.636Z,16.60
2019-05-21T04:37:33.499Z,16.60
2019-05-21T04:40:04.790Z,16.60
2019-05-21T04:42:36.927Z,16.70
2019-05-21T04:45:08.245Z,16.70
2019-05-21T04:47:40.088Z,16.90
2019-05-21T04:50:11.026Z,17.00
2019-05-21T04:52:43.077Z,17.00
2019-05-21T04:55:13.951Z,17.10
2019-05-21T04:57:44.966Z,17.20
2019-05-21T05:00:17.110Z,17.10
2019-05-21T05:02:49.588Z,17.10
2019-05-21T05:05:20.494Z,17.20
2019-05-21T05:07:51.484Z,17.30
2019-05-21T05:10:22.424Z,17.20
2019-05-21T05:12:54.926Z,17.50
2019-05-21T05:15:25.790Z,17.70
2019-05-21T05:17:56.651Z,17.60
2019-05-21T05:20:27.506Z,17.70
2019-05-21T05:22:58.489Z,17.80
2019-05-21T05:25:29.281Z,17.80
2019-05-21T05:28:00.111Z,17.90
2019-05-21T05:30:30.866Z,18.00
2019-05-21T05:33:02.710Z,17.80
2019-05-21T05:35:33.436Z,17.90
2019-05-21T05:38:04.487Z,18.00
2019-05-21T05:40:35.243Z,18.20
2019-05-21T05:43:07.423Z,18.20
2019-05-21T05:45:38.528Z,18.30
2019-05-21T05:48:09.979Z,18.20
2019-05-21T05:50:42.508Z,18.20
2019-05-21T05:53:13.385Z,18.20
2019-05-21T05:55:44.248Z,18.20
2019-05-21T05:58:15.158Z,18.30
2019-05-21T06:00:45.993Z,18.30
2019-05-21T06:03:17.681Z,18.10
2019-05-21T06:05:48.456Z,18.50
2019-05-21T06:08:19.240Z,18.90
2019-05-21T06:10:50.427Z,19.30
2019-05-21T06:13:22.695Z,19.40
2019-05-21T06:15:54.177Z,19.60
2019-05-21T06:18:25.345Z,19.60
2019-05-21T06:20:56.411Z,19.40
2019-05-21T06:23:28.838Z,19.40
2019-05-21T06:25:59.639Z,19.40
2019-05-21T06:28:30.528Z,19.80
2019-05-21T06:31:01.421Z,19.90
2019-05-21T06:33:32.259Z,20.10
2019-05-21T06:36:03.167Z,20.00
2019-05-21T06:38:34.057Z,20.00
2019-05-21T06:43:35.314Z,20.20
2019-05-21T06:46:06.253Z,22.30
2019-05-21T06:48:37.167Z,24.50
2019-05-21T06:51:09.358Z,24.50
2019-05-21T06:53:40.159Z,23.60
2019-05-21T06:56:10.933Z,22.50
2019-05-21T06:58:41.867Z,21.80
2019-05-21T07:01:12.684Z,21.30
2019-05-21T07:03:44.136Z,20.80
2019-05-21T07:06:15.091Z,20.90
2019-05-21T07:08:46.029Z,21.10
2019-05-21T07:11:18.278Z,22.90
2019-05-21T07:13:49.274Z,22.10
2019-05-21T07:16:20.138Z,22.50
2019-05-21T07:18:51.009Z,22.00
2019-05-21T07:21:22.775Z,21.80
2019-05-21T07:23:53.701Z,21.40
2019-05-21T07:26:24.759Z,21.60
2019-05-21T07:28:57.964Z,21.40
2019-05-21T07:31:30.358Z,21.90
2019-05-21T07:34:04.266Z,22.00
2019-05-21T07:36:35.257Z,22.60
2019-05-21T07:39:07.640Z,22.90
2019-05-21T07:41:41.329Z,23.50
2019-05-21T07:44:15.646Z,23.40
2019-05-21T07:46:49.332Z,24.00
2019-05-21T07:49:22.031Z,27.00
2019-05-21T07:51:55.605Z,25.60
2019-05-21T07:54:28.831Z,26.10
2019-05-21T07:56:59.754Z,26.10
2019-05-21T07:59:30.770Z,24.50
2019-05-21T08:02:02.859Z,24.40
2019-05-21T08:04:33.696Z,24.40
2019-05-21T08:07:04.575Z,25.20
2019-05-21T08:09:35.503Z,26.20
2019-05-21T08:12:27.442Z,27.50
2019-05-21T08:14:38.778Z,28.20
2019-05-21T08:17:09.662Z,27.90
2019-05-21T08:19:40.557Z,28.50
2019-05-21T08:22:12.943Z,29.10
2019-05-21T08:24:43.864Z,30.80
2019-05-21T08:27:14.780Z,32.40
2019-05-21T08:29:49.332Z,29.90
2019-05-21T08:32:20.542Z,29.40
2019-05-21T08:34:54.575Z,28.00
2019-05-21T08:37:30.049Z,27.00
2019-05-21T08:40:06.126Z,27.20
2019-05-21T08:42:38.943Z,29.20
2019-05-21T08:45:14.608Z,28.60
2019-05-21T08:47:49.941Z,28.70
2019-05-21T08:50:27.343Z,29.50
2019-05-21T08:53:00.893Z,29.00
2019-05-21T08:55:35.261Z,28.70
2019-05-21T08:58:07.876Z,28.00
2019-05-21T09:00:43.374Z,29.40
2019-05-21T09:03:15.752Z,31.10
2019-05-21T09:05:47.004Z,32.30
2019-05-21T09:08:19.995Z,32.70
2019-05-21T09:10:56.684Z,32.40
2019-05-21T09:13:33.547Z,30.60
2019-05-21T09:16:07.490Z,29.30
2019-05-21T09:18:42.171Z,28.90
2019-05-21T09:21:27.465Z,29.70
2019-05-21T09:23:59.004Z,28.80
2019-05-21T09:26:33.601Z,27.70
2019-05-21T09:29:06.425Z,26.60
2019-05-21T09:31:53.642Z,26.90
2019-05-21T09:34:28.521Z,28.80
2019-05-21T09:37:18.190Z,28.30
2019-05-21T09:39:37.551Z,30.90
2019-05-21T09:42:09.132Z,32.60
2019-05-21T09:44:40.955Z,32.20
2019-05-21T09:47:15.295Z,31.40
2019-05-21T09:49:55.613Z,30.40
2019-05-21T09:52:31.959Z,28.90
2019-05-21T09:55:07.592Z,28.50
2019-05-21T09:57:52.767Z,28.40
2019-05-21T10:00:32.622Z,29.50
2019-05-21T10:03:05.314Z,30.80
2019-05-21T10:05:39.887Z,29.60
2019-05-21T10:08:19.456Z,29.40
2019-05-21T10:10:50.456Z,28.40
2019-05-21T10:13:21.310Z,29.30
2019-05-21T10:16:10.384Z,29.30
2019-05-21T10:18:44.409Z,30.60
2019-05-21T10:21:25.213Z,30.20
2019-05-21T10:24:00.412Z,31.30
2019-05-21T10:26:40.889Z,31.50
2019-05-21T10:29:15.519Z,31.40
2019-05-21T10:31:49.813Z,31.90
2019-05-21T10:34:23.926Z,31.70
2019-05-21T10:37:03.641Z,32.80
2019-05-21T10:39:36.551Z,33.20
2019-05-21T10:42:09.045Z,33.20
2019-05-21T10:44:42.776Z,32.80
2019-05-21T10:47:16.525Z,32.20
2019-05-21T10:49:48.859Z,31.60
2019-05-21T10:52:27.942Z,30.00
2019-05-21T10:55:00.722Z,29.10
2019-05-21T10:57:36.233Z,28.60
2019-05-21T11:00:22.865Z,29.30
2019-05-21T11:02:57.785Z,29.10
2019-05-21T11:05:39.982Z,30.70
2019-05-21T11:08:24.121Z,31.50
2019-05-21T11:10:54.292Z,29.90
2019-05-21T11:13:26.852Z,31.30
2019-05-21T11:16:00.514Z,32.50
2019-05-21T11:18:34.768Z,32.80
2019-05-21T11:21:07.360Z,32.50
2019-05-21T11:23:41.157Z,33.50
2019-05-21T11:26:16.118Z,33.00
2019-05-21T11:28:59.718Z,32.30
2019-05-21T11:31:34.131Z,33.50
2019-05-21T11:34:07.243Z,32.30
2019-05-21T11:36:42.493Z,31.40
2019-05-21T11:42:12.293Z,31.50
2019-05-21T11:44:45.755Z,32.10
2019-05-21T11:47:19.150Z,31.20
2019-05-21T11:49:52.375Z,32.00
2019-05-21T11:52:25.004Z,32.50
2019-05-21T11:54:58.731Z,33.70
2019-05-21T11:57:32.051Z,32.80
2019-05-21T12:00:03.801Z,30.50
2019-05-21T12:02:38.798Z,29.40
2019-05-21T12:05:10.830Z,29.00
2019-05-21T12:07:46.420Z,28.00
2019-05-21T12:10:23.745Z,27.70
2019-05-21T12:12:55.502Z,27.50
2019-05-21T12:15:28.243Z,27.10
2019-05-21T12:17:59.321Z,26.80
2019-05-21T12:20:36.589Z,27.30
2019-05-21T12:23:04.046Z,27.40
2019-05-21T12:25:34.791Z,28.00
2019-05-21T12:28:05.689Z,28.40
2019-05-21T12:30:37.564Z,29.40
2019-05-21T12:33:09.307Z,29.50
2019-05-21T12:35:40.606Z,29.40
2019-05-21T12:38:12.466Z,29.20
2019-05-21T12:40:47.799Z,28.60
2019-05-21T12:43:25.760Z,27.90
2019-05-21T12:45:58.493Z,27.60
2019-05-21T12:48:34.641Z,27.00
2019-05-21T12:51:10.616Z,27.30
2019-05-21T12:53:44.327Z,27.30
2019-05-21T12:56:16.077Z,27.70
2019-05-21T12:58:47.984Z,27.50
2019-05-21T13:01:20.985Z,27.10
2019-05-21T13:03:55.312Z,27.30
2019-05-21T13:06:25.469Z,27.40
2019-05-21T13:08:56.994Z,28.00
2019-05-21T13:11:30.138Z,28.00
2019-05-21T13:14:01.482Z,29.10
2019-05-21T13:16:36.117Z,30.00
2019-05-21T13:19:11.179Z,30.10
2019-05-21T13:21:42.513Z,29.60
2019-05-21T13:24:21.882Z,29.10
2019-05-21T13:26:54.251Z,28.30
2019-05-21T13:29:27.001Z,27.60
2019-05-21T13:32:00.097Z,26.70
2019-05-21T13:34:38.266Z,27.10
2019-05-21T13:37:06.085Z,27.50
2019-05-21T13:39:49.518Z,28.60
2019-05-21T13:42:22.456Z,29.00
2019-05-21T13:44:57.923Z,29.20
2019-05-21T13:47:33.029Z,29.40
2019-05-21T13:50:09.851Z,29.30
2019-05-21T13:52:41.703Z,29.10
2019-05-21T13:55:13.174Z,29.80
2019-05-21T13:57:44.846Z,29.80
2019-05-21T14:00:20.406Z,29.20
2019-05-21T14:02:52.546Z,29.50
2019-05-21T14:05:24.083Z,29.00
2019-05-21T14:07:56.766Z,29.30
2019-05-21T14:10:31.488Z,29.30
2019-05-21T14:13:05.322Z,29.30
2019-05-21T14:15:42.765Z,30.00
2019-05-21T14:18:29.493Z,29.90
2019-05-21T14:21:07.092Z,29.70
2019-05-21T14:23:41.468Z,28.80
2019-05-21T14:26:20.047Z,28.30
2019-05-21T14:28:56.434Z,28.20
2019-05-21T14:31:42.461Z,28.60
2019-05-21T14:34:14.316Z,28.20
2019-05-21T14:36:52.657Z,27.50
2019-05-21T14:39:25.169Z,26.60
2019-05-21T14:42:14.669Z,25.90
2019-05-21T14:44:51.132Z,25.60
2019-05-21T14:47:25.744Z,25.50
2019-05-21T14:50:02.413Z,25.50
2019-05-21T14:52:51.806Z,25.30
2019-05-21T14:55:32.004Z,25.70
2019-05-21T14:58:10.612Z,25.60
2019-05-21T15:00:41.816Z,26.30
2019-05-21T15:03:24.998Z,27.20
2019-05-21T15:05:47.418Z,26.90
2019-05-21T15:08:18.461Z,25.80
2019-05-21T15:10:49.834Z,25.50
2019-05-21T15:13:22.280Z,25.10
2019-05-21T15:15:53.693Z,25.20
2019-05-21T15:18:24.667Z,24.80
2019-05-21T15:21:02.012Z,24.70
2019-05-21T15:23:33.073Z,25.00
2019-05-21T15:26:04.211Z,24.70
2019-05-21T15:28:35.179Z,24.60
2019-05-21T15:31:07.455Z,25.00
2019-05-21T15:33:38.351Z,24.70
2019-05-21T15:36:09.327Z,24.40
2019-05-21T15:38:50.064Z,24.50
2019-05-21T15:41:14.171Z,25.00
2019-05-21T15:43:45.109Z,25.10
2019-05-21T15:46:16.047Z,25.20
2019-05-21T15:48:47.062Z,25.10
2019-05-21T15:51:18.976Z,25.20
2019-05-21T15:53:50.038Z,25.50
2019-05-21T15:56:20.926Z,25.40
2019-05-21T15:58:51.863Z,25.30
2019-05-21T16:01:23.008Z,24.90
2019-05-21T16:03:53.799Z,24.80
2019-05-21T16:06:29.227Z,24.70
2019-05-21T16:09:01.674Z,24.10
2019-05-21T16:11:34.133Z,24.00
2019-05-21T16:14:08.426Z,24.40
2019-05-21T16:16:41.098Z,24.70
2019-05-21T16:19:23.290Z,24.70
2019-05-21T16:21:59.388Z,24.90
2019-05-21T16:24:32.353Z,24.70
2019-05-21T16:27:06.792Z,25.10
2019-05-21T16:29:38.138Z,25.20
2019-05-21T16:32:09.718Z,24.50
2019-05-21T16:34:44.647Z,24.50
2019-05-21T16:37:19.111Z,24.30
2019-05-21T16:39:53.274Z,24.00
2019-05-21T16:42:25.695Z,23.70
2019-05-21T16:45:01.884Z,23.70
2019-05-21T16:47:45.841Z,23.60
2019-05-21T16:50:15.986Z,23.60
2019-05-21T16:52:52.093Z,23.40
2019-05-21T16:55:22.953Z,23.30
2019-05-21T16:57:56.166Z,23.20
2019-05-21T17:00:27.463Z,22.90
2019-05-21T17:02:58.350Z,22.80
2019-05-21T17:05:31.007Z,22.70
2019-05-21T17:08:06.153Z,22.60
2019-05-21T17:10:37.193Z,22.70
2019-05-21T17:13:07.890Z,22.60
2019-05-21T17:15:38.757Z,22.50
2019-05-21T17:18:09.641Z,22.30
2019-05-21T17:20:40.626Z,22.40
2019-05-21T17:23:11.368Z,22.50
2019-05-21T17:25:42.304Z,22.30
2019-05-21T17:28:14.392Z,22.30
2019-05-21T17:30:45.686Z,22.30
2019-05-21T17:33:19.790Z,22.30
2019-05-21T17:35:53.879Z,22.20
2019-05-21T17:38:29.044Z,22.20
2019-05-21T17:41:02.593Z,22.10
2019-05-21T17:43:34.159Z,22.00
2019-05-21T17:46:05.593Z,21.70
2019-05-21T17:48:37.838Z,21.40
2019-05-21T17:51:10.729Z,21.20
2019-05-21T17:53:44.321Z,21.00
2019-05-21T17:56:15.464Z,20.80
2019-05-21T17:58:52.717Z,20.70
2019-05-21T18:01:27.085Z,20.60
2019-05-21T18:04:02.618Z,20.20
2019-05-21T18:06:39.816Z,20.20
2019-05-21T18:09:15.572Z,19.90
2019-05-21T18:11:48.231Z,19.80
2019-05-21T18:14:21.129Z,19.60
2019-05-21T18:16:54.416Z,19.40
2019-05-21T18:19:27.600Z,19.50
2019-05-21T18:21:59.243Z,19.50
2019-05-21T18:24:33.658Z,19.50
2019-05-21T18:27:08.439Z,19.20
2019-05-21T18:29:52.295Z,19.10
2019-05-21T18:32:29.055Z,19.00
2019-05-21T18:35:08.927Z,19.10
2019-05-21T18:37:48.077Z,19.20
2019-05-21T18:40:22.766Z,19.00
2019-05-21T18:42:57.572Z,19.10
2019-05-21T18:45:30.921Z,19.10
2019-05-21T18:48:05.509Z,19.20
2019-05-21T18:50:43.242Z,19.20
2019-05-21T18:53:21.269Z,19.00
2019-05-21T18:55:54.988Z,19.00
2019-05-21T18:58:32.594Z,18.90
2019-05-21T19:01:07.477Z,19.20
2019-05-21T19:03:44.466Z,19.10
2019-05-21T19:06:17.781Z,18.90
2019-05-21T19:08:56.300Z,18.60
2019-05-21T19:11:34.217Z,18.50
2019-05-21T19:14:22.591Z,18.30
2019-05-21T19:16:56.437Z,18.20
2019-05-21T19:19:30.124Z,18.20
2019-05-21T19:22:03.930Z,18.10
2019-05-21T19:24:40.286Z,17.90
2019-05-21T19:27:15.767Z,17.90
2019-05-21T19:29:51.444Z,18.00
2019-05-21T19:32:28.499Z,18.10
2019-05-21T19:35:03.636Z,18.10
2019-05-21T19:37:40.408Z,18.00
2019-05-21T19:40:17.283Z,18.00
2019-05-21T19:42:56.207Z,17.80
2019-05-21T19:45:31.456Z,17.80
2019-05-21T19:48:03.450Z,17.70
2019-05-21T19:50:39.856Z,17.60
2019-05-21T19:53:11.902Z,17.40
2019-05-21T19:55:46.866Z,17.40
2019-05-21T19:58:20.669Z,17.20
2019-05-21T20:00:53.932Z,17.10
2019-05-21T20:03:27.146Z,17.00
2019-05-21T20:06:04.480Z,16.90
2019-05-21T20:08:36.805Z,16.90
2019-05-21T20:11:09.186Z,16.80
2019-05-21T20:13:40.785Z,16.80
2019-05-21T20:16:15.123Z,16.70
2019-05-21T20:18:46.248Z,16.60
2019-05-21T20:21:18.573Z,16.60
2019-05-21T20:23:51.393Z,16.50
2019-05-21T20:26:25.111Z,16.50
2019-05-21T20:28:56.595Z,16.50
2019-05-21T20:31:27.812Z,16.40
2019-05-21T20:33:59.225Z,16.40
2019-05-21T20:36:30.530Z,16.40
2019-05-21T20:39:02.444Z,16.40
2019-05-21T20:41:35.983Z,16.30
2019-05-21T20:44:09.810Z,16.40
2019-05-21T20:46:45.572Z,16.50
2019-05-21T20:49:17.166Z,16.50
2019-05-21T20:51:48.363Z,16.60
2019-05-21T20:54:21.278Z,16.70
2019-05-21T20:56:53.974Z,16.60
2019-05-21T20:59:25.579Z,16.80
2019-05-21T21:01:58.714Z,16.70
2019-05-21T21:04:30.757Z,16.80
2019-05-21T21:07:05.512Z,16.90
2019-05-21T21:09:37.664Z,16.90
2019-05-21T21:12:09.865Z,16.80
2019-05-21T21:14:43.524Z,16.80
2019-05-21T21:17:16.610Z,16.80
2019-05-21T21:19:49.167Z,16.70
2019-05-21T21:22:20.427Z,16.60
2019-05-21T21:24:55.049Z,16.70
2019-05-21T21:27:28.204Z,16.60
2019-05-21T21:29:59.896Z,16.60
2019-05-21T21:32:31.576Z,16.60
2019-05-21T21:35:03.348Z,16.60
2019-05-21T21:37:35.630Z,16.60
2019-05-21T21:40:09.193Z,16.60
2019-05-21T21:42:41.601Z,16.50
2019-05-21T21:45:13.275Z,16.60
2019-05-21T21:47:45.374Z,16.40
2019-05-21T21:50:17.861Z,16.40
2019-05-21T21:52:49.483Z,16.30
2019-05-21T21:55:21.623Z,16.30
2019-05-21T21:57:54.115Z,16.30
2019-05-21T22:01:00.172Z,16.30
2019-05-21T22:03:34.390Z,16.30
2019-05-21T22:06:09.107Z,16.20
2019-05-21T22:08:40.775Z,16.20
2019-05-21T22:11:12.504Z,16.10
2019-05-21T22:13:44.210Z,16.10
2019-05-21T22:16:19.032Z,16.10
2019-05-21T22:18:51.611Z,15.90
2019-05-21T22:21:22.735Z,15.90
2019-05-21T22:23:54.170Z,15.80
2019-05-21T22:26:25.800Z,15.80
2019-05-21T22:28:56.774Z,15.60
2019-05-21T22:31:27.765Z,15.60
2019-05-21T22:33:59.217Z,15.50
2019-05-21T22:36:33.277Z,15.50
2019-05-21T22:39:08.874Z,15.40
2019-05-21T22:41:39.712Z,15.40
2019-05-21T22:44:10.697Z,15.40
2019-05-21T22:46:42.348Z,15.20
2019-05-21T22:49:13.714Z,15.20
2019-05-21T22:51:45.764Z,15.20
2019-05-21T22:54:18.035Z,15.30
2019-05-21T22:56:49.430Z,15.30
2019-05-21T22:59:21.193Z,15.30
2019-05-21T23:01:54.964Z,15.30
2019-05-21T23:04:26.548Z,15.30
2019-05-21T23:06:59.682Z,15.20
2019-05-21T23:09:30.827Z,15.30
2019-05-21T23:12:03.627Z,15.20
2019-05-21T23:14:34.855Z,15.10
2019-05-21T23:17:09.261Z,15.20
2019-05-21T23:19:56.980Z,15.10
2019-05-21T23:22:29.926Z,15.10
2019-05-21T23:25:00.900Z,15.10
2019-05-21T23:27:32.338Z,15.10
2019-05-21T23:30:03.952Z,15.10
2019-05-21T23:32:35.799Z,15.10
2019-05-21T23:35:09.447Z,15.00
2019-05-21T23:37:42.480Z,14.90
2019-05-21T23:40:15.725Z,15.00
2019-05-21T23:42:47.428Z,15.00
2019-05-21T23:45:19.980Z,15.00
2019-05-21T23:47:50.841Z,15.00
2019-05-21T23:50:22.158Z,14.90
2019-05-21T23:52:55.143Z,15.00
2019-05-21T23:55:26.301Z,15.00
2019-05-21T23:57:58.023Z,14.90
